Time;durP1;ratioP1;P1;durP2;ratioP2;P2;SDS_P1;SDS_P2;PMS_P1;PMS_P2;Temp;Humidity;BMP_temperature;BMP_pressure;BME280_temperature;BME280_humidity;BME280_pressure;Samples;Min_cycle;Max_cycle;Signal;HPM_P1;HPM_P2
2022/10/22 00:00:10;;;;;;;;;;;17.50;99.90;17.50;99310.00;;;;338320;28;88157;-96
2022/10/22 00:00:22;;;;;;;;;;;17.50;99.90;17.50;99316.00;;;;339738;28;82536;-95
2022/10/22 00:00:34;;;;;;;;;;;17.50;99.90;17.50;99319.00;;;;337703;28;88105;-95
2022/10/22 00:00:46;;;;;;;;;;;17.50;99.90;17.50;99313.00;;;;339877;28;82671;-95
2022/10/22 00:00:58;;;;;;;;;;;17.50;99.90;17.50;99318.00;;;;339183;28;89526;-96
2022/10/22 00:01:09;;;;;;;;;;;17.50;99.90;17.50;99321.00;;;;339104;28;82634;-96
2022/10/22 00:01:23;;;;;;;;;;;17.50;99.90;17.50;99318.00;;;;337031;28;87685;-96
2022/10/22 00:01:35;;;;;;;;;;;17.50;99.90;17.50;99318.00;;;;337539;28;82172;-96
2022/10/22 00:01:47;;;;;;;;;;;17.50;99.90;17.60;99314.00;;;;337020;28;87271;-96
2022/10/22 00:01:59;;;;;;;;;;;17.40;99.90;17.50;99317.00;;;;337843;28;82581;-96
2022/10/22 00:02:14;;;;;;;;;;;17.50;99.90;17.60;99311.00;;;;336949;28;90391;-95
2022/10/22 00:02:26;;;;;;;;;;;17.50;99.90;17.60;99315.00;;;;342367;28;82727;-96
2022/10/22 00:02:38;;;;;;;;;;;17.50;99.90;17.60;99315.00;;;;340281;28;90805;-96
2022/10/22 00:02:50;;;;;;;;;;;17.50;99.90;17.60;99312.00;;;;337926;28;82506;-96
2022/10/22 00:03:02;;;;;;;;;;;17.50;99.90;17.60;99319.00;;;;338292;28;87562;-96
2022/10/22 00:03:14;;;;;;;;;;;17.50;99.90;17.60;99307.00;;;;340959;28;82430;-96
2022/10/22 00:03:26;;;;;;;;;;;17.40;99.90;17.60;99319.00;;;;340348;28;89288;-96
2022/10/22 00:03:37;;;;;;;;;;;17.50;99.90;17.60;99310.00;;;;339524;28;82574;-96
2022/10/22 00:03:49;;;;;;;;;;;17.50;99.90;17.60;99315.00;;;;337599;28;88468;-96
2022/10/22 00:04:01;;;;;;;;;;;17.40;99.90;17.60;99310.00;;;;339886;28;82495;-96
2022/10/22 00:04:13;;;;;;;;;;;17.50;99.90;17.60;99311.00;;;;341449;28;88334;-95
2022/10/22 00:04:25;;;;;;;;;;;17.40;99.90;17.70;99309.00;;;;340543;28;82460;-96
2022/10/22 00:04:42;;;;;;;;;;;17.50;99.90;17.60;99316.00;;;;338130;28;90315;-95
2022/10/22 00:04:55;;;;;;;;;;;17.50;99.90;17.60;99313.00;;;;339053;28;82467;-95
2022/10/22 00:05:08;;;;;;;;;;;17.40;99.90;17.60;99313.00;;;;337588;28;91391;-96
2022/10/22 00:05:20;;;;;;;;;;;17.50;99.90;17.50;99317.00;;;;336755;28;82760;-96
2022/10/22 00:05:32;;;;;;;;;;;17.40;99.90;17.50;99311.00;;;;337774;28;89880;-96
2022/10/22 00:05:44;;;;;;;;;;;17.40;99.90;17.60;99314.00;;;;339562;28;82434;-95
2022/10/22 00:05:55;;;;;;;;;;;17.40;99.90;17.50;99320.00;;;;338940;28;91253;-96
2022/10/22 00:06:07;;;;;;;;;;;17.40;99.90;17.50;99307.00;;;;339942;28;83592;-96
2022/10/22 00:06:19;;;;;;;;;;;17.40;99.90;17.50;99323.00;;;;338946;28;88087;-96
2022/10/22 00:06:31;;;;;;;;;;;17.40;99.90;17.50;99318.00;;;;337852;28;82612;-96
2022/10/22 00:06:44;;;;;;;;;;;17.40;99.90;17.60;99321.00;;;;340465;28;89584;-96
2022/10/22 00:06:56;;;;;;;;;;;17.40;99.90;17.60;99318.00;;;;336931;28;82587;-96
2022/10/22 00:07:08;;;;;;;;;;;17.40;99.90;17.60;99325.00;;;;337044;28;87540;-96
2022/10/22 00:07:20;;;;;;;;;;;17.40;99.90;17.60;99320.00;;;;338160;28;82539;-96
2022/10/22 00:07:32;;;;;;;;;;;17.40;99.90;17.60;99325.00;;;;337929;28;88440;-96
2022/10/22 00:07:44;;;;;;;;;;;17.40;99.90;17.50;99324.00;;;;336921;28;82440;-95
2022/10/22 00:07:55;;;;;;;;;;;17.40;99.90;17.50;99326.00;;;;337746;28;88420;-96
2022/10/22 00:08:07;;;;;;;;;;;17.40;99.90;17.50;99322.00;;;;339710;28;82215;-95
2022/10/22 00:08:19;;;;;;;;;;;17.40;99.90;17.50;99329.00;;;;337801;28;89624;-96
2022/10/22 00:08:31;;;;;;;;;;;17.40;99.90;17.50;99331.00;;;;336638;28;82432;-95
2022/10/22 00:08:43;;;;;;;;;;;17.40;99.90;17.50;99332.00;;;;338030;28;86630;-96
2022/10/22 00:08:55;;;;;;;;;;;17.40;99.90;17.50;99329.00;;;;336492;28;82538;-96
2022/10/22 00:09:07;;;;;;;;;;;17.40;99.90;17.50;99336.00;;;;337420;28;90910;-96
2022/10/22 00:09:19;;;;;;;;;;;17.40;99.90;17.50;99335.00;;;;337612;28;82561;-96
2022/10/22 00:09:31;;;;;;;;;;;17.40;99.90;17.50;99334.00;;;;337846;28;89976;-96
2022/10/22 00:09:43;;;;;;;;;;;17.40;99.90;17.50;99329.00;;;;336825;28;82484;-96
2022/10/22 00:09:55;;;;;;;;;;;17.40;99.90;17.50;99340.00;;;;341427;28;89237;-95
2022/10/22 00:10:07;;;;;;;;;;;17.40;99.90;17.50;99339.00;;;;340605;28;82760;-95
2022/10/22 00:10:19;;;;;;;;;;;17.40;99.90;17.50;99332.00;;;;339119;28;89597;-96
2022/10/22 00:10:31;;;;;;;;;;;17.40;99.90;17.50;99342.00;;;;339421;28;82609;-96
2022/10/22 00:10:44;;;;;;;;;;;17.40;99.90;17.60;99337.00;;;;338610;28;88258;-96
2022/10/22 00:10:56;;;;;;;;;;;17.40;99.90;17.60;99337.00;;;;340033;28;82438;-96
2022/10/22 00:11:15;;;;;;;;;;;17.40;99.90;17.50;99334.00;;;;338372;28;90715;-95
2022/10/22 00:11:27;;;;;;;;;;;17.40;99.90;17.50;99334.00;;;;338386;28;82481;-96
2022/10/22 00:11:40;;;;;;;;;;;17.40;99.90;17.50;99332.00;;;;337773;28;89399;-96
2022/10/22 00:11:52;;;;;;;;;;;17.40;99.90;17.50;99337.00;;;;337100;28;82458;-96
2022/10/22 00:12:04;;;;;;;;;;;17.40;99.90;17.50;99341.00;;;;336592;28;87147;-96
2022/10/22 00:12:16;;;;;;;;;;;17.40;99.90;17.50;99331.00;;;;338295;28;82330;-96
2022/10/22 00:12:28;;;;;;;;;;;17.40;99.90;17.50;99333.00;;;;336499;28;88361;-95
2022/10/22 00:12:40;;;;;;;;;;;17.40;99.90;17.50;99341.00;;;;338200;28;82769;-96
2022/10/22 00:12:51;;;;;;;;;;;17.40;99.90;17.50;99332.00;;;;339027;28;90352;-96
2022/10/22 00:13:03;;;;;;;;;;;17.40;99.90;17.50;99330.00;;;;338391;28;82659;-95
2022/10/22 00:13:15;;;;;;;;;;;17.40;99.90;17.50;99334.00;;;;336510;28;89015;-95
2022/10/22 00:13:27;;;;;;;;;;;17.40;99.90;17.50;99329.00;;;;338341;28;82672;-96
2022/10/22 00:13:39;;;;;;;;;;;17.40;99.90;17.50;99334.00;;;;337738;28;88042;-96
2022/10/22 00:13:51;;;;;;;;;;;17.40;99.90;17.50;99343.00;;;;339735;28;82545;-96
2022/10/22 00:14:03;;;;;;;;;;;17.40;99.90;17.50;99331.00;;;;339684;28;87497;-96
2022/10/22 00:14:15;;;;;;;;;;;17.40;99.90;17.50;99336.00;;;;337883;28;82619;-96
2022/10/22 00:14:27;;;;;;;;;;;17.40;99.90;17.40;99332.00;;;;336401;28;89574;-96
2022/10/22 00:14:39;;;;;;;;;;;17.40;99.90;17.40;99338.00;;;;340034;28;82696;-96
2022/10/22 00:14:51;;;;;;;;;;;17.30;99.90;17.40;99341.00;;;;337403;28;87404;-96
2022/10/22 00:15:04;;;;;;;;;;;17.30;99.90;17.40;99341.00;;;;338020;28;82595;-96
2022/10/22 00:15:16;;;;;;;;;;;17.30;99.90;17.40;99347.00;;;;337596;28;90090;-96
2022/10/22 00:15:28;;;;;;;;;;;17.40;99.90;17.40;99334.00;;;;337771;28;82641;-95
2022/10/22 00:15:40;;;;;;;;;;;17.30;99.90;17.60;99331.00;;;;339012;28;88454;-96
2022/10/22 00:15:51;;;;;;;;;;;17.30;99.90;17.60;99338.00;;;;338560;28;82591;-95
2022/10/22 00:16:03;;;;;;;;;;;17.30;99.90;17.60;99337.00;;;;337829;28;87309;-96
2022/10/22 00:16:15;;;;;;;;;;;17.40;99.90;17.60;99341.00;;;;338407;28;82217;-96
2022/10/22 00:16:27;;;;;;;;;;;17.30;99.90;17.60;99333.00;;;;340083;28;90076;-96
2022/10/22 00:16:39;;;;;;;;;;;17.30;99.90;17.60;99343.00;;;;339352;28;83695;-96
2022/10/22 00:16:51;;;;;;;;;;;17.40;99.90;17.60;99338.00;;;;337694;28;86536;-96
2022/10/22 00:17:02;;;;;;;;;;;17.30;99.90;17.60;99340.00;;;;338077;28;82579;-96
2022/10/22 00:17:22;;;;;;;;;;;17.40;99.90;17.60;99340.00;;;;340110;28;90768;-95
2022/10/22 00:17:34;;;;;;;;;;;17.40;99.90;17.60;99336.00;;;;341099;28;82486;-96
2022/10/22 00:17:48;;;;;;;;;;;17.40;99.90;17.60;99340.00;;;;337529;28;90009;-96
2022/10/22 00:18:00;;;;;;;;;;;17.40;99.90;17.60;99335.00;;;;338182;28;82566;-96
2022/10/22 00:18:12;;;;;;;;;;;17.40;99.90;17.60;99342.00;;;;339215;28;86566;-96
2022/10/22 00:18:23;;;;;;;;;;;17.40;99.90;17.60;99335.00;;;;340960;28;82501;-95
2022/10/22 00:18:35;;;;;;;;;;;17.40;99.90;17.60;99343.00;;;;338436;28;88242;-96
2022/10/22 00:18:48;;;;;;;;;;;17.40;99.90;17.60;99337.00;;;;337775;28;82258;-95
2022/10/22 00:19:00;;;;;;;;;;;17.40;99.90;17.70;99336.00;;;;337490;28;89128;-96
2022/10/22 00:19:13;;;;;;;;;;;17.40;99.90;17.60;99345.00;;;;339743;28;82401;-96
2022/10/22 00:19:26;;;;;;;;;;;17.40;99.90;17.60;99343.00;;;;340969;28;91173;-96
2022/10/22 00:19:38;;;;;;;;;;;17.40;99.90;17.60;99346.00;;;;339241;28;82594;-96
2022/10/22 00:19:50;;;;;;;;;;;17.40;99.90;17.60;99346.00;;;;340142;28;90146;-96
2022/10/22 00:20:02;;;;;;;;;;;17.40;99.90;17.60;99335.00;;;;340497;28;82310;-96
2022/10/22 00:20:15;;;;;;;;;;;17.40;99.90;17.60;99335.00;;;;340457;28;90286;-96
2022/10/22 00:20:27;;;;;;;;;;;17.40;99.90;17.60;99342.00;;;;341188;28;82621;-96
2022/10/22 00:20:38;;;;;;;;;;;17.40;99.90;17.60;99335.00;;;;340013;28;88083;-96
2022/10/22 00:20:50;;;;;;;;;;;17.40;99.90;17.50;99341.00;;;;339620;28;82376;-96
2022/10/22 00:21:02;;;;;;;;;;;17.40;99.90;17.60;99332.00;;;;338848;28;90167;-96
2022/10/22 00:21:14;;;;;;;;;;;17.40;99.90;17.50;99341.00;;;;339563;28;82519;-96
2022/10/22 00:21:27;;;;;;;;;;;17.40;99.90;17.50;99336.00;;;;341545;28;90078;-96
2022/10/22 00:21:39;;;;;;;;;;;17.40;99.90;17.50;99335.00;;;;342146;28;82599;-96
2022/10/22 00:21:51;;;;;;;;;;;17.40;99.90;17.60;99333.00;;;;340535;28;89223;-96
2022/10/22 00:22:05;;;;;;;;;;;17.40;99.90;17.50;99333.00;;;;342449;28;82608;-96
2022/10/22 00:22:18;;;;;;;;;;;17.30;99.90;17.50;99330.00;;;;339131;28;86692;-95
2022/10/22 00:22:30;;;;;;;;;;;17.30;99.90;17.60;99326.00;;;;339544;28;82641;-95
2022/10/22 00:22:43;;;;;;;;;;;17.30;99.90;17.60;99337.00;;;;338944;28;87445;-94
2022/10/22 00:22:55;;;;;;;;;;;17.40;99.90;17.60;99336.00;;;;341267;28;82431;-95
2022/10/22 00:23:07;;;;;;;;;;;17.40;99.90;17.60;99333.00;;;;341407;28;86682;-96
2022/10/22 00:23:20;;;;;;;;;;;17.40;99.90;17.50;99337.00;;;;341155;28;82318;-96
2022/10/22 00:23:32;;;;;;;;;;;17.30;99.90;17.50;99336.00;;;;340422;28;90962;-96
2022/10/22 00:23:44;;;;;;;;;;;17.30;99.90;17.40;99331.00;;;;341019;28;82379;-95
2022/10/22 00:23:56;;;;;;;;;;;17.30;99.90;17.40;99341.00;;;;339963;28;88811;-95
2022/10/22 00:24:08;;;;;;;;;;;17.30;99.90;17.40;99331.00;;;;339497;28;82574;-96
2022/10/22 00:24:20;;;;;;;;;;;17.30;99.90;17.60;99327.00;;;;340572;28;89529;-95
2022/10/22 00:24:33;;;;;;;;;;;17.40;99.90;17.60;99329.00;;;;340553;28;82340;-95
2022/10/22 00:24:45;;;;;;;;;;;17.40;99.90;17.60;99335.00;;;;340330;28;92142;-96
2022/10/22 00:24:56;;;;;;;;;;;17.40;99.90;17.60;99331.00;;;;342392;28;82312;-95
2022/10/22 00:25:08;;;;;;;;;;;17.40;99.90;17.60;99324.00;;;;340377;28;89290;-96
2022/10/22 00:25:20;;;;;;;;;;;17.40;99.90;17.50;99329.00;;;;341161;28;82411;-95
2022/10/22 00:25:33;;;;;;;;;;;17.40;99.90;17.50;99328.00;;;;338855;28;90877;-96
2022/10/22 00:25:45;;;;;;;;;;;17.40;99.90;17.50;99333.00;;;;340775;28;82621;-96
2022/10/22 00:25:57;;;;;;;;;;;17.40;99.90;17.50;99330.00;;;;340524;28;86609;-96
2022/10/22 00:26:09;;;;;;;;;;;17.40;99.90;17.50;99331.00;;;;340756;28;82619;-95
2022/10/22 00:26:21;;;;;;;;;;;17.40;99.90;17.50;99334.00;;;;341792;28;90636;-96
2022/10/22 00:26:33;;;;;;;;;;;17.40;99.90;17.50;99331.00;;;;338192;28;82569;-95
2022/10/22 00:26:45;;;;;;;;;;;17.40;99.90;17.50;99329.00;;;;341716;28;89253;-95
2022/10/22 00:26:57;;;;;;;;;;;17.40;99.90;17.50;99328.00;;;;342393;28;82486;-96
2022/10/22 00:27:10;;;;;;;;;;;17.40;99.90;17.50;99324.00;;;;341535;28;87076;-95
2022/10/22 00:27:22;;;;;;;;;;;17.40;99.90;17.50;99328.00;;;;338333;28;83434;-96
2022/10/22 00:27:33;;;;;;;;;;;17.40;99.90;17.50;99326.00;;;;338086;28;88257;-95
2022/10/22 00:27:45;;;;;;;;;;;17.40;99.90;17.50;99326.00;;;;341027;28;83986;-96
2022/10/22 00:27:57;;;;;;;;;;;17.40;99.90;17.60;99327.00;;;;338707;28;89449;-96
2022/10/22 00:28:10;;;;;;;;;;;17.40;99.90;17.60;99330.00;;;;339229;28;82672;-96
2022/10/22 00:28:22;;;;;;;;;;;17.40;99.90;17.60;99319.00;;;;338943;28;89166;-95
2022/10/22 00:28:34;;;;;;;;;;;17.40;99.90;17.60;99323.00;;;;340740;28;82676;-96
2022/10/22 00:28:46;;;;;;;;;;;17.40;99.90;17.60;99322.00;;;;338700;28;89677;-96
2022/10/22 00:28:58;;;;;;;;;;;17.40;99.90;17.60;99323.00;;;;340564;28;82623;-95
2022/10/22 00:29:10;;;;;;;;;;;17.40;99.90;17.60;99316.00;;;;339325;28;89354;-96
2022/10/22 00:29:22;;;;;;;;;;;17.40;99.90;17.60;99325.00;;;;339697;28;82596;-96
2022/10/22 00:29:34;;;;;;;;;;;17.40;99.90;17.60;99326.00;;;;340727;28;91223;-96
2022/10/22 00:29:46;;;;;;;;;;;17.40;99.90;17.60;99318.00;;;;340904;28;83399;-95
2022/10/22 00:29:58;;;;;;;;;;;17.40;99.90;17.60;99317.00;;;;338996;28;89131;-95
2022/10/22 00:30:10;;;;;;;;;;;17.40;99.90;17.70;99322.00;;;;336924;28;82560;-96
2022/10/22 00:30:22;;;;;;;;;;;17.40;99.90;17.70;99321.00;;;;336556;28;89983;-94
2022/10/22 00:30:34;;;;;;;;;;;17.40;99.90;17.70;99324.00;;;;337153;28;82593;-96
2022/10/22 00:30:46;;;;;;;;;;;17.40;99.90;17.70;99322.00;;;;337439;28;88659;-96
2022/10/22 00:30:58;;;;;;;;;;;17.40;99.90;17.70;99316.00;;;;339693;28;82302;-96
2022/10/22 00:31:10;;;;;;;;;;;17.40;99.90;17.70;99315.00;;;;340206;28;89271;-96
2022/10/22 00:31:23;;;;;;;;;;;17.40;99.90;17.70;99319.00;;;;339695;28;82492;-96
2022/10/22 00:31:35;;;;;;;;;;;17.50;99.90;17.70;99321.00;;;;340273;28;89489;-96
2022/10/22 00:31:48;;;;;;;;;;;17.50;99.90;17.70;99321.00;;;;339400;28;82630;-96
2022/10/22 00:32:02;;;;;;;;;;;17.50;99.90;17.70;99325.00;;;;338077;28;87988;-96
2022/10/22 00:32:14;;;;;;;;;;;17.50;99.90;17.80;99321.00;;;;339685;28;82577;-96
2022/10/22 00:32:26;;;;;;;;;;;17.50;99.90;17.80;99321.00;;;;341634;28;88277;-96
2022/10/22 00:32:39;;;;;;;;;;;17.50;99.90;17.80;99317.00;;;;339118;28;82544;-96
2022/10/22 00:32:51;;;;;;;;;;;17.50;99.90;17.80;99320.00;;;;337516;28;90420;-96
2022/10/22 00:33:03;;;;;;;;;;;17.50;99.90;17.80;99312.00;;;;337826;28;82179;-95
2022/10/22 00:33:15;;;;;;;;;;;17.50;99.90;17.80;99321.00;;;;338063;28;91071;-95
2022/10/22 00:33:27;;;;;;;;;;;17.50;99.90;17.80;99326.00;;;;339389;28;82685;-96
2022/10/22 00:33:39;;;;;;;;;;;17.50;99.90;17.80;99325.00;;;;340067;28;91806;-96
2022/10/22 00:33:51;;;;;;;;;;;17.50;99.90;17.80;99326.00;;;;339171;28;82693;-96
2022/10/22 00:34:03;;;;;;;;;;;17.50;99.90;17.80;99325.00;;;;337953;28;90232;-96
2022/10/22 00:34:18;;;;;;;;;;;17.50;99.90;17.80;99322.00;;;;337219;28;82469;-96
2022/10/22 00:34:30;;;;;;;;;;;17.50;99.90;17.80;99323.00;;;;337947;28;90331;-96
2022/10/22 00:34:42;;;;;;;;;;;17.50;99.90;17.80;99319.00;;;;338193;28;82534;-96
2022/10/22 00:34:54;;;;;;;;;;;17.50;99.90;17.80;99326.00;;;;340151;28;88657;-96
2022/10/22 00:35:06;;;;;;;;;;;17.60;99.90;17.80;99334.00;;;;340883;28;82392;-96
2022/10/22 00:35:18;;;;;;;;;;;17.60;99.90;17.80;99330.00;;;;341721;28;89944;-96
2022/10/22 00:35:30;;;;;;;;;;;17.60;99.90;17.80;99326.00;;;;339705;28;82591;-95
2022/10/22 00:35:43;;;;;;;;;;;17.60;99.90;17.80;99334.00;;;;341603;28;90553;-95
2022/10/22 00:35:55;;;;;;;;;;;17.60;99.90;17.80;99324.00;;;;340624;28;82596;-96
2022/10/22 00:36:07;;;;;;;;;;;17.60;99.90;17.70;99326.00;;;;339533;28;86462;-96
2022/10/22 00:36:19;;;;;;;;;;;17.60;99.90;17.70;99333.00;;;;339630;28;82609;-96
2022/10/22 00:36:31;;;;;;;;;;;17.60;99.90;17.70;99333.00;;;;341399;28;88412;-96
2022/10/22 00:36:43;;;;;;;;;;;17.60;99.90;17.70;99338.00;;;;339449;28;82667;-96
2022/10/22 00:36:55;;;;;;;;;;;17.60;99.90;17.70;99329.00;;;;340386;28;87457;-96
2022/10/22 00:37:07;;;;;;;;;;;17.60;99.90;17.70;99324.00;;;;342039;28;82581;-96
2022/10/22 00:37:19;;;;;;;;;;;17.60;99.90;17.70;99336.00;;;;342003;28;88762;-96
2022/10/22 00:37:30;;;;;;;;;;;17.60;99.90;17.70;99330.00;;;;340935;28;82636;-95
2022/10/22 00:37:43;;;;;;;;;;;17.60;99.90;17.70;99335.00;;;;337830;28;88475;-96
2022/10/22 00:37:55;;;;;;;;;;;17.60;99.90;17.70;99331.00;;;;338027;28;82602;-96
2022/10/22 00:38:07;;;;;;;;;;;17.60;99.90;17.60;99332.00;;;;340174;28;89580;-96
2022/10/22 00:38:19;;;;;;;;;;;17.50;99.90;17.60;99332.00;;;;340887;28;82568;-96
2022/10/22 00:38:30;;;;;;;;;;;17.50;99.90;17.70;99336.00;;;;340434;28;90524;-96
2022/10/22 00:38:42;;;;;;;;;;;17.50;99.90;17.70;99329.00;;;;341221;28;82313;-96
2022/10/22 00:38:54;;;;;;;;;;;17.50;99.90;17.70;99334.00;;;;341135;28;87332;-96
2022/10/22 00:39:06;;;;;;;;;;;17.50;99.90;17.70;99331.00;;;;339540;28;82627;-96
2022/10/22 00:39:19;;;;;;;;;;;17.60;99.90;17.60;99337.00;;;;338104;28;90267;-95
2022/10/22 00:39:31;;;;;;;;;;;17.50;99.90;17.60;99331.00;;;;339945;28;82596;-96
2022/10/22 00:39:43;;;;;;;;;;;17.50;99.90;17.60;99337.00;;;;339093;28;90502;-94
2022/10/22 00:39:55;;;;;;;;;;;17.50;99.90;17.70;99340.00;;;;339962;28;82547;-96
2022/10/22 00:40:07;;;;;;;;;;;17.50;99.90;17.70;99343.00;;;;339431;28;87303;-96
2022/10/22 00:40:19;;;;;;;;;;;17.50;99.90;17.70;99339.00;;;;338893;28;82563;-96
2022/10/22 00:40:33;;;;;;;;;;;17.50;99.90;17.60;99336.00;;;;337691;28;88566;-96
2022/10/22 00:40:45;;;;;;;;;;;17.50;99.90;17.60;99338.00;;;;341205;28;82559;-95
2022/10/22 00:40:57;;;;;;;;;;;17.50;99.90;17.60;99334.00;;;;339372;28;90163;-96
2022/10/22 00:41:09;;;;;;;;;;;17.50;99.90;17.70;99335.00;;;;337349;28;82547;-96
2022/10/22 00:41:20;;;;;;;;;;;17.50;99.90;17.70;99341.00;;;;338056;28;90857;-96
2022/10/22 00:41:32;;;;;;;;;;;17.60;99.90;17.70;99342.00;;;;342488;28;82619;-96
2022/10/22 00:41:45;;;;;;;;;;;17.50;99.90;17.70;99342.00;;;;339510;28;88306;-96
2022/10/22 00:41:57;;;;;;;;;;;17.50;99.90;17.70;99341.00;;;;341113;28;82497;-96
2022/10/22 00:42:14;;;;;;;;;;;17.60;99.90;17.60;99344.00;;;;341050;28;88588;-96
2022/10/22 00:42:30;;;;;;;;;;;17.50;99.90;17.60;99345.00;;;;338494;28;82428;-96
2022/10/22 00:42:42;;;;;;;;;;;17.50;99.90;17.60;99339.00;;;;340700;28;90394;-96
2022/10/22 00:42:54;;;;;;;;;;;17.50;99.90;17.70;99337.00;;;;339941;28;82592;-96
2022/10/22 00:43:11;;;;;;;;;;;17.50;99.90;17.70;99343.00;;;;340129;28;87489;-96
2022/10/22 00:43:23;;;;;;;;;;;17.50;99.90;17.70;99337.00;;;;338689;28;82652;-96
2022/10/22 00:43:56;;;;;;;;;;;17.50;99.90;17.80;99342.00;;;;338134;28;89185;-96
2022/10/22 00:44:46;;;;;;;;;;;17.50;99.90;17.90;99346.00;;;;340663;28;82437;-96
2022/10/22 00:45:10;;;;;;;;;;;17.60;99.90;17.80;99352.00;;;;340115;28;91738;-96
2022/10/22 00:45:26;;;;;;;;;;;17.60;99.90;17.80;99348.00;;;;341495;28;82159;-96
2022/10/22 00:45:37;;;;;;;;;;;17.60;99.90;17.80;99355.00;;;;341041;28;87252;-96
2022/10/22 00:45:49;;;;;;;;;;;17.60;99.90;17.80;99350.00;;;;342173;28;82556;-96
2022/10/22 00:46:01;;;;;;;;;;;17.50;99.90;17.80;99358.00;;;;341755;28;90135;-96
2022/10/22 00:46:13;;;;;;;;;;;17.60;99.90;17.80;99349.00;;;;342839;28;82477;-96
2022/10/22 00:46:25;;;;;;;;;;;17.60;99.90;17.70;99351.00;;;;339598;28;88034;-96
2022/10/22 00:46:37;;;;;;;;;;;17.60;99.90;17.70;99353.00;;;;341532;28;82522;-95
2022/10/22 00:46:48;;;;;;;;;;;17.60;99.90;17.70;99351.00;;;;340799;28;90207;-96
2022/10/22 00:47:00;;;;;;;;;;;17.60;99.90;17.80;99348.00;;;;341090;28;82637;-93
2022/10/22 00:47:13;;;;;;;;;;;17.50;99.90;17.70;99353.00;;;;339622;28;89146;-96
2022/10/22 00:47:27;;;;;;;;;;;17.60;99.90;17.70;99355.00;;;;339924;28;82532;-96
2022/10/22 00:47:54;;;;;;;;;;;17.60;99.90;17.80;99349.00;;;;339677;28;88431;-96
2022/10/22 00:48:09;;;;;;;;;;;17.60;99.90;17.80;99354.00;;;;339995;28;82770;-96
2022/10/22 00:48:23;;;;;;;;;;;17.60;99.90;17.80;99354.00;;;;341315;28;87442;-96
2022/10/22 00:48:35;;;;;;;;;;;17.60;99.90;17.80;99354.00;;;;338210;28;83418;-96
2022/10/22 00:48:47;;;;;;;;;;;17.60;99.90;17.80;99351.00;;;;338075;28;89160;-96
2022/10/22 00:49:00;;;;;;;;;;;17.60;99.90;17.80;99351.00;;;;338486;28;82428;-96
2022/10/22 00:49:13;;;;;;;;;;;17.60;99.90;17.80;99347.00;;;;338976;28;89478;-96
2022/10/22 00:49:24;;;;;;;;;;;17.60;99.90;17.80;99350.00;;;;340785;28;82587;-95
2022/10/22 00:49:36;;;;;;;;;;;17.60;99.90;17.70;99354.00;;;;342192;28;91483;-96
2022/10/22 00:49:48;;;;;;;;;;;17.60;99.90;17.70;99351.00;;;;340542;28;82600;-96
2022/10/22 00:50:01;;;;;;;;;;;17.60;99.90;17.70;99355.00;;;;337658;28;88439;-95
2022/10/22 00:50:57;;;;;;;;;;;17.60;99.90;17.70;99358.00;;;;337555;28;82465;-96
2022/10/22 00:51:09;;;;;;;;;;;17.60;99.90;17.60;99353.00;;;;339562;28;90649;-94
2022/10/22 00:51:22;;;;;;;;;;;17.60;99.90;17.60;99361.00;;;;339182;28;82595;-96
2022/10/22 00:51:34;;;;;;;;;;;17.60;99.90;17.60;99359.00;;;;341328;28;86540;-96
2022/10/22 00:51:45;;;;;;;;;;;17.60;99.90;17.60;99366.00;;;;340135;28;82784;-96
2022/10/22 00:51:58;;;;;;;;;;;17.60;99.90;17.60;99367.00;;;;339986;28;88471;-96
2022/10/22 00:52:10;;;;;;;;;;;17.60;99.90;17.60;99363.00;;;;341519;28;82566;-96
2022/10/22 00:52:22;;;;;;;;;;;17.60;99.90;17.60;99364.00;;;;340581;28;88331;-96
2022/10/22 00:52:34;;;;;;;;;;;17.60;99.90;17.60;99361.00;;;;340893;28;82290;-96
2022/10/22 00:52:46;;;;;;;;;;;17.50;99.90;17.50;99358.00;;;;340762;28;86549;-96
2022/10/22 00:52:58;;;;;;;;;;;17.50;99.90;17.60;99366.00;;;;342381;28;82515;-96
2022/10/22 00:53:12;;;;;;;;;;;17.50;99.90;17.50;99370.00;;;;338838;28;87289;-96
2022/10/22 00:53:36;;;;;;;;;;;17.50;99.90;17.50;99368.00;;;;340900;28;82489;-96
2022/10/22 00:53:50;;;;;;;;;;;17.50;99.90;17.50;99369.00;;;;342971;28;90342;-96
2022/10/22 00:54:03;;;;;;;;;;;17.50;99.90;17.40;99374.00;;;;338679;28;82464;-96
2022/10/22 00:54:16;;;;;;;;;;;17.50;99.90;17.40;99377.00;;;;341812;28;88944;-96
2022/10/22 00:54:27;;;;;;;;;;;17.50;99.90;17.40;99372.00;;;;343198;28;82582;-96
2022/10/22 00:54:39;;;;;;;;;;;17.50;99.90;17.40;99375.00;;;;338566;28;90413;-96
2022/10/22 00:54:51;;;;;;;;;;;17.50;99.90;17.40;99375.00;;;;340479;28;82596;-96
2022/10/22 00:55:03;;;;;;;;;;;17.50;99.90;17.40;99381.00;;;;339007;28;90198;-96
2022/10/22 00:55:16;;;;;;;;;;;17.40;99.90;17.40;99379.00;;;;339388;28;82551;-96
2022/10/22 00:55:28;;;;;;;;;;;17.50;99.90;17.40;99379.00;;;;340560;28;86412;-96
2022/10/22 00:55:40;;;;;;;;;;;17.50;99.90;17.40;99387.00;;;;340666;28;82565;-96
2022/10/22 00:55:52;;;;;;;;;;;17.40;99.90;17.40;99385.00;;;;340619;28;88654;-96
2022/10/22 00:56:04;;;;;;;;;;;17.40;99.90;17.40;99387.00;;;;340044;28;82620;-96
2022/10/22 00:56:16;;;;;;;;;;;17.40;99.90;17.40;99381.00;;;;337620;28;89356;-96
2022/10/22 00:56:28;;;;;;;;;;;17.40;99.90;17.40;99385.00;;;;340754;28;82465;-96
2022/10/22 00:56:40;;;;;;;;;;;17.40;99.90;17.40;99385.00;;;;339040;28;87616;-96
2022/10/22 00:56:52;;;;;;;;;;;17.40;99.90;17.40;99383.00;;;;336993;28;82377;-95
2022/10/22 00:57:04;;;;;;;;;;;17.40;99.90;17.50;99387.00;;;;336699;28;86366;-96
2022/10/22 00:57:16;;;;;;;;;;;17.40;99.90;17.50;99387.00;;;;339367;28;83248;-96
2022/10/22 00:57:29;;;;;;;;;;;17.40;99.90;17.50;99384.00;;;;337841;28;87338;-96
2022/10/22 00:57:41;;;;;;;;;;;17.40;99.90;17.50;99386.00;;;;340537;28;82692;-94
2022/10/22 00:57:53;;;;;;;;;;;17.40;99.90;17.50;99394.00;;;;340552;28;86416;-96
2022/10/22 00:58:06;;;;;;;;;;;17.40;99.90;17.50;99389.00;;;;339786;28;82547;-96
2022/10/22 00:58:22;;;;;;;;;;;17.40;99.90;17.50;99393.00;;;;337934;28;89757;-95
2022/10/22 00:58:36;;;;;;;;;;;17.40;99.90;17.50;99388.00;;;;340602;28;82442;-96
2022/10/22 00:58:51;;;;;;;;;;;17.40;99.90;17.50;99393.00;;;;339229;28;90154;-96
2022/10/22 00:59:04;;;;;;;;;;;17.40;99.90;17.50;99395.00;;;;343489;28;82207;-96
2022/10/22 00:59:18;;;;;;;;;;;17.40;99.90;17.50;99394.00;;;;342968;28;90057;-96
2022/10/22 00:59:30;;;;;;;;;;;17.40;99.90;17.50;99399.00;;;;342404;28;82218;-96
2022/10/22 00:59:42;;;;;;;;;;;17.40;99.90;17.50;99396.00;;;;341604;28;89972;-96
2022/10/22 00:59:53;;;;;;;;;;;17.40;99.90;17.50;99405.00;;;;340262;28;82604;-96
2022/10/22 01:00:06;;;;;;;;;;;17.40;99.90;17.60;99397.00;;;;339060;28;90009;-96
2022/10/22 01:00:18;;;;;;;;;;;17.40;99.90;17.60;99402.00;;;;339320;28;82713;-96
2022/10/22 01:00:29;;;;;;;;;;;17.40;99.90;17.60;99400.00;;;;339341;28;87325;-95
2022/10/22 01:00:42;;;;;;;;;;;17.40;99.90;17.60;99401.00;;;;338765;28;82796;-96
2022/10/22 01:00:54;;;;;;;;;;;17.40;99.90;17.60;99408.00;;;;338944;28;91111;-96
2022/10/22 01:01:08;;;;;;;;;;;17.40;99.90;17.60;99403.00;;;;339053;28;82355;-96
2022/10/22 01:01:23;;;;;;;;;;;17.40;99.90;17.50;99407.00;;;;337415;28;90169;-96
2022/10/22 01:01:35;;;;;;;;;;;17.40;99.90;17.50;99400.00;;;;336643;28;82278;-96
2022/10/22 01:01:49;;;;;;;;;;;17.40;99.90;17.50;99406.00;;;;337295;28;88199;-96
2022/10/22 01:02:00;;;;;;;;;;;17.40;99.90;17.60;99412.00;;;;339586;28;82479;-96
2022/10/22 01:02:12;;;;;;;;;;;17.40;99.90;17.60;99407.00;;;;340102;28;89592;-96
2022/10/22 01:02:24;;;;;;;;;;;17.40;99.90;17.60;99405.00;;;;339230;28;82559;-96
2022/10/22 01:02:36;;;;;;;;;;;17.40;99.90;17.60;99408.00;;;;338091;28;88461;-96
2022/10/22 01:02:49;;;;;;;;;;;17.40;99.90;17.60;99412.00;;;;339130;28;82523;-96
2022/10/22 01:03:01;;;;;;;;;;;17.40;99.90;17.60;99412.00;;;;341036;28;90832;-96
2022/10/22 01:03:13;;;;;;;;;;;17.50;99.90;17.60;99402.00;;;;339015;28;82745;-96
2022/10/22 01:03:26;;;;;;;;;;;17.40;99.90;17.60;99401.00;;;;337552;28;90312;-96